sensor_id;sensor_type;location;lat;lon;timestamp;temperature;humidity
9393;DHT22;4736;52.508;13.422;2022-12-18T00:01:58;-4.40;1.00
9393;DHT22;4736;52.508;13.422;2022-12-18T00:05:01;-4.50;1.00
9393;DHT22;4736;52.508;13.422;2022-12-18T00:08:04;-4.40;1.00
9393;DHT22;4736;52.508;13.422;2022-12-18T00:11:12;-4.50;1.00
9393;DHT22;4736;52.508;13.422;2022-12-18T00:14:15;-4.50;1.00
9393;DHT22;4736;52.508;13.422;2022-12-18T00:17:20;-4.50;1.00
9393;DHT22;4736;52.508;13.422;2022-12-18T00:20:22;-4.40;1.00
9393;DHT22;4736;52.508;13.422;2022-12-18T00:23:27;-4.40;1.00
9393;DHT22;4736;52.508;13.422;2022-12-18T00:26:32;-4.60;1.00
9393;DHT22;4736;52.508;13.422;2022-12-18T00:29:35;-4.60;1.00
9393;DHT22;4736;52.508;13.422;2022-12-18T00:32:40;-4.50;1.00
9393;DHT22;4736;52.508;13.422;2022-12-18T00:35:43;-4.70;1.00
9393;DHT22;4736;52.508;13.422;2022-12-18T00:38:46;-4.50;1.00
9393;DHT22;4736;52.508;13.422;2022-12-18T00:41:49;-4.60;1.00
9393;DHT22;4736;52.508;13.422;2022-12-18T00:45:10;-5.00;1.00
9393;DHT22;4736;52.508;13.422;2022-12-18T00:48:15;-4.90;1.00
9393;DHT22;4736;52.508;13.422;2022-12-18T00:51:18;-5.20;1.00
9393;DHT22;4736;52.508;13.422;2022-12-18T00:54:21;-5.00;1.00
9393;DHT22;4736;52.508;13.422;2022-12-18T00:57:24;-5.10;1.00
9393;DHT22;4736;52.508;13.422;2022-12-18T01:00:27;-5.10;1.00
9393;DHT22;4736;52.508;13.422;2022-12-18T01:03:31;-4.90;1.00
9393;DHT22;4736;52.508;13.422;2022-12-18T01:06:34;-5.20;1.00
9393;DHT22;4736;52.508;13.422;2022-12-18T01:09:37;-5.30;1.00
9393;DHT22;4736;52.508;13.422;2022-12-18T01:12:40;-5.20;1.00
9393;DHT22;4736;52.508;13.422;2022-12-18T01:15:48;-4.80;1.00
9393;DHT22;4736;52.508;13.422;2022-12-18T01:18:53;-5.10;1.00
9393;DHT22;4736;52.508;13.422;2022-12-18T01:21:57;-5.00;1.00
9393;DHT22;4736;52.508;13.422;2022-12-18T01:25:00;-4.80;1.00
9393;DHT22;4736;52.508;13.422;2022-12-18T01:28:03;-5.00;1.00
9393;DHT22;4736;52.508;13.422;2022-12-18T01:31:11;-4.80;1.00
9393;DHT22;4736;52.508;13.422;2022-12-18T01:34:16;-5.00;1.00
9393;DHT22;4736;52.508;13.422;2022-12-18T01:37:19;-5.00;1.00
9393;DHT22;4736;52.508;13.422;2022-12-18T01:40:22;-4.90;1.00
9393;DHT22;4736;52.508;13.422;2022-12-18T01:43:41;-5.10;1.00
9393;DHT22;4736;52.508;13.422;2022-12-18T01:46:44;-5.20;1.00
9393;DHT22;4736;52.508;13.422;2022-12-18T01:49:48;-5.20;1.00
9393;DHT22;4736;52.508;13.422;2022-12-18T01:52:55;-5.30;1.00
9393;DHT22;4736;52.508;13.422;2022-12-18T01:55:59;-5.20;1.00
9393;DHT22;4736;52.508;13.422;2022-12-18T01:59:04;-5.20;1.00
9393;DHT22;4736;52.508;13.422;2022-12-18T02:02:09;-5.40;1.00
9393;DHT22;4736;52.508;13.422;2022-12-18T02:05:16;-5.30;1.00
9393;DHT22;4736;52.508;13.422;2022-12-18T02:08:22;-5.40;1.00
9393;DHT22;4736;52.508;13.422;2022-12-18T02:11:37;-5.10;1.00
9393;DHT22;4736;52.508;13.422;2022-12-18T02:14:46;-5.10;1.00
9393;DHT22;4736;52.508;13.422;2022-12-18T02:17:54;-5.00;1.00
9393;DHT22;4736;52.508;13.422;2022-12-18T02:21:03;-5.20;1.00
9393;DHT22;4736;52.508;13.422;2022-12-18T02:24:21;-5.00;1.00
9393;DHT22;4736;52.508;13.422;2022-12-18T02:27:30;-4.90;1.00
9393;DHT22;4736;52.508;13.422;2022-12-18T02:30:35;-5.20;1.00
9393;DHT22;4736;52.508;13.422;2022-12-18T02:33:43;-5.10;1.00
9393;DHT22;4736;52.508;13.422;2022-12-18T02:36:48;-5.00;1.00
9393;DHT22;4736;52.508;13.422;2022-12-18T02:39:54;-5.30;1.00
9393;DHT22;4736;52.508;13.422;2022-12-18T02:43:07;-5.40;1.00
9393;DHT22;4736;52.508;13.422;2022-12-18T02:46:34;-5.20;1.00
9393;DHT22;4736;52.508;13.422;2022-12-18T02:49:44;-5.10;1.00
9393;DHT22;4736;52.508;13.422;2022-12-18T02:52:59;-5.10;1.00
9393;DHT22;4736;52.508;13.422;2022-12-18T02:56:10;-5.10;1.00
9393;DHT22;4736;52.508;13.422;2022-12-18T02:59:21;-5.30;1.00
9393;DHT22;4736;52.508;13.422;2022-12-18T03:02:31;-5.20;1.00
9393;DHT22;4736;52.508;13.422;2022-12-18T03:05:40;-5.30;1.00
9393;DHT22;4736;52.508;13.422;2022-12-18T03:08:50;-5.40;1.00
9393;DHT22;4736;52.508;13.422;2022-12-18T03:11:58;-5.20;1.00
9393;DHT22;4736;52.508;13.422;2022-12-18T03:15:26;-5.10;1.00
9393;DHT22;4736;52.508;13.422;2022-12-18T03:18:32;-5.20;1.00
9393;DHT22;4736;52.508;13.422;2022-12-18T03:21:39;-4.80;1.00
9393;DHT22;4736;52.508;13.422;2022-12-18T03:24:44;-5.10;1.00
9393;DHT22;4736;52.508;13.422;2022-12-18T03:27:51;-5.10;1.00
9393;DHT22;4736;52.508;13.422;2022-12-18T03:30:58;-5.30;1.00
9393;DHT22;4736;52.508;13.422;2022-12-18T03:34:05;-5.30;1.00
9393;DHT22;4736;52.508;13.422;2022-12-18T03:37:11;-5.20;1.00
9393;DHT22;4736;52.508;13.422;2022-12-18T03:40:14;-5.30;1.00
9393;DHT22;4736;52.508;13.422;2022-12-18T03:43:20;-5.30;1.00
9393;DHT22;4736;52.508;13.422;2022-12-18T03:46:36;-5.20;1.00
9393;DHT22;4736;52.508;13.422;2022-12-18T03:49:47;-5.30;1.00
9393;DHT22;4736;52.508;13.422;2022-12-18T03:52:58;-5.40;1.00
9393;DHT22;4736;52.508;13.422;2022-12-18T03:56:04;-5.30;1.00
9393;DHT22;4736;52.508;13.422;2022-12-18T03:59:09;-5.40;1.00
9393;DHT22;4736;52.508;13.422;2022-12-18T04:02:16;-5.40;1.00
9393;DHT22;4736;52.508;13.422;2022-12-18T04:05:20;-5.60;1.00
9393;DHT22;4736;52.508;13.422;2022-12-18T04:08:24;-5.50;1.00
9393;DHT22;4736;52.508;13.422;2022-12-18T04:11:28;-5.70;1.00
9393;DHT22;4736;52.508;13.422;2022-12-18T04:14:31;-5.60;1.00
9393;DHT22;4736;52.508;13.422;2022-12-18T04:17:39;-5.60;1.00
9393;DHT22;4736;52.508;13.422;2022-12-18T04:20:42;-5.40;1.00
9393;DHT22;4736;52.508;13.422;2022-12-18T04:23:45;-5.60;1.00
9393;DHT22;4736;52.508;13.422;2022-12-18T04:26:48;-5.60;1.00
9393;DHT22;4736;52.508;13.422;2022-12-18T04:29:51;-5.80;1.00
9393;DHT22;4736;52.508;13.422;2022-12-18T04:32:55;-5.80;1.00
9393;DHT22;4736;52.508;13.422;2022-12-18T04:35:58;-5.70;1.00
9393;DHT22;4736;52.508;13.422;2022-12-18T04:39:01;-5.90;1.00
9393;DHT22;4736;52.508;13.422;2022-12-18T04:42:04;-5.60;1.00
9393;DHT22;4736;52.508;13.422;2022-12-18T04:45:08;-5.50;1.00
9393;DHT22;4736;52.508;13.422;2022-12-18T04:48:13;-5.60;1.00
9393;DHT22;4736;52.508;13.422;2022-12-18T04:51:15;-5.60;1.00
9393;DHT22;4736;52.508;13.422;2022-12-18T04:54:26;-5.60;1.00
9393;DHT22;4736;52.508;13.422;2022-12-18T04:57:29;-5.60;1.00
9393;DHT22;4736;52.508;13.422;2022-12-18T05:00:32;-5.80;1.00
9393;DHT22;4736;52.508;13.422;2022-12-18T05:03:37;-5.70;1.00
9393;DHT22;4736;52.508;13.422;2022-12-18T05:06:41;-5.70;1.00
9393;DHT22;4736;52.508;13.422;2022-12-18T05:09:44;-5.70;1.00
9393;DHT22;4736;52.508;13.422;2022-12-18T05:12:47;-5.80;1.00
9393;DHT22;4736;52.508;13.422;2022-12-18T05:16:02;-5.60;1.00
9393;DHT22;4736;52.508;13.422;2022-12-18T05:19:07;-5.80;1.00
9393;DHT22;4736;52.508;13.422;2022-12-18T05:22:10;-5.70;1.00
9393;DHT22;4736;52.508;13.422;2022-12-18T05:25:13;-5.60;1.00
9393;DHT22;4736;52.508;13.422;2022-12-18T05:28:16;-5.90;1.00
9393;DHT22;4736;52.508;13.422;2022-12-18T05:31:19;-5.70;1.00
9393;DHT22;4736;52.508;13.422;2022-12-18T05:34:24;-5.70;1.00
9393;DHT22;4736;52.508;13.422;2022-12-18T05:37:27;-5.80;1.00
9393;DHT22;4736;52.508;13.422;2022-12-18T05:40:30;-5.70;1.00
9393;DHT22;4736;52.508;13.422;2022-12-18T05:43:35;-5.70;1.00
9393;DHT22;4736;52.508;13.422;2022-12-18T05:46:41;-5.70;1.00
9393;DHT22;4736;52.508;13.422;2022-12-18T05:49:46;-6.00;1.00
9393;DHT22;4736;52.508;13.422;2022-12-18T05:52:49;-5.70;1.00
9393;DHT22;4736;52.508;13.422;2022-12-18T05:55:52;-5.60;1.00
9393;DHT22;4736;52.508;13.422;2022-12-18T05:58:55;-5.60;1.00
9393;DHT22;4736;52.508;13.422;2022-12-18T06:01:57;-5.50;1.00
9393;DHT22;4736;52.508;13.422;2022-12-18T06:05:02;-5.50;1.00
9393;DHT22;4736;52.508;13.422;2022-12-18T06:08:06;-5.60;1.00
9393;DHT22;4736;52.508;13.422;2022-12-18T06:11:09;-5.60;1.00
9393;DHT22;4736;52.508;13.422;2022-12-18T06:14:12;-5.60;1.00
9393;DHT22;4736;52.508;13.422;2022-12-18T06:17:15;-5.80;1.00
9393;DHT22;4736;52.508;13.422;2022-12-18T06:20:19;-5.70;1.00
9393;DHT22;4736;52.508;13.422;2022-12-18T06:23:22;-5.60;1.00
9393;DHT22;4736;52.508;13.422;2022-12-18T06:26:25;-6.00;1.00
9393;DHT22;4736;52.508;13.422;2022-12-18T06:29:29;-5.80;1.00
9393;DHT22;4736;52.508;13.422;2022-12-18T06:32:32;-5.90;1.00
9393;DHT22;4736;52.508;13.422;2022-12-18T06:35:36;-6.00;1.00
9393;DHT22;4736;52.508;13.422;2022-12-18T06:38:41;-5.60;1.00
9393;DHT22;4736;52.508;13.422;2022-12-18T06:41:44;-5.90;1.00
9393;DHT22;4736;52.508;13.422;2022-12-18T06:44:47;-5.60;1.00
9393;DHT22;4736;52.508;13.422;2022-12-18T06:47:50;-5.80;1.00
9393;DHT22;4736;52.508;13.422;2022-12-18T06:50:55;-5.50;1.00
9393;DHT22;4736;52.508;13.422;2022-12-18T06:53:57;-5.80;1.00
9393;DHT22;4736;52.508;13.422;2022-12-18T06:57:00;-5.50;1.00
9393;DHT22;4736;52.508;13.422;2022-12-18T07:00:05;-5.50;1.00
9393;DHT22;4736;52.508;13.422;2022-12-18T07:03:09;-5.70;1.00
9393;DHT22;4736;52.508;13.422;2022-12-18T07:06:18;-5.60;1.00
9393;DHT22;4736;52.508;13.422;2022-12-18T07:09:22;-5.50;1.00
9393;DHT22;4736;52.508;13.422;2022-12-18T07:12:26;-5.30;1.00
9393;DHT22;4736;52.508;13.422;2022-12-18T07:15:29;-5.50;1.00
9393;DHT22;4736;52.508;13.422;2022-12-18T07:18:32;-5.30;1.00
9393;DHT22;4736;52.508;13.422;2022-12-18T07:21:37;-5.30;1.00
9393;DHT22;4736;52.508;13.422;2022-12-18T07:24:40;-5.30;1.00
9393;DHT22;4736;52.508;13.422;2022-12-18T07:27:43;-5.50;1.00
9393;DHT22;4736;52.508;13.422;2022-12-18T07:30:46;-5.20;1.00
9393;DHT22;4736;52.508;13.422;2022-12-18T07:33:50;-5.30;1.00
9393;DHT22;4736;52.508;13.422;2022-12-18T07:36:54;-5.30;1.00
9393;DHT22;4736;52.508;13.422;2022-12-18T07:39:57;-5.50;1.00
9393;DHT22;4736;52.508;13.422;2022-12-18T07:43:00;-5.30;1.00
9393;DHT22;4736;52.508;13.422;2022-12-18T07:46:04;-5.50;1.00
9393;DHT22;4736;52.508;13.422;2022-12-18T07:49:07;-5.30;1.00
9393;DHT22;4736;52.508;13.422;2022-12-18T07:52:12;-5.50;1.00
9393;DHT22;4736;52.508;13.422;2022-12-18T07:55:15;-5.30;1.00
9393;DHT22;4736;52.508;13.422;2022-12-18T07:58:18;-5.40;1.00
9393;DHT22;4736;52.508;13.422;2022-12-18T08:01:21;-5.40;1.00
9393;DHT22;4736;52.508;13.422;2022-12-18T08:04:24;-5.40;1.00
9393;DHT22;4736;52.508;13.422;2022-12-18T08:07:28;-5.40;1.00
9393;DHT22;4736;52.508;13.422;2022-12-18T08:10:32;-5.20;1.00
9393;DHT22;4736;52.508;13.422;2022-12-18T08:13:35;-5.20;1.00
9393;DHT22;4736;52.508;13.422;2022-12-18T08:16:38;-5.30;1.00
9393;DHT22;4736;52.508;13.422;2022-12-18T08:19:41;-5.30;1.00
9393;DHT22;4736;52.508;13.422;2022-12-18T08:22:45;-5.10;1.00
9393;DHT22;4736;52.508;13.422;2022-12-18T08:25:49;-5.20;1.00
9393;DHT22;4736;52.508;13.422;2022-12-18T08:28:53;-5.10;1.00
9393;DHT22;4736;52.508;13.422;2022-12-18T08:31:56;-5.00;1.00
9393;DHT22;4736;52.508;13.422;2022-12-18T08:34:59;-5.10;1.00
9393;DHT22;4736;52.508;13.422;2022-12-18T08:38:03;-5.20;1.00
9393;DHT22;4736;52.508;13.422;2022-12-18T08:41:09;-5.00;1.00
9393;DHT22;4736;52.508;13.422;2022-12-18T08:44:12;-5.00;1.00
9393;DHT22;4736;52.508;13.422;2022-12-18T08:47:32;-5.20;1.00
9393;DHT22;4736;52.508;13.422;2022-12-18T08:50:36;-5.40;1.00
9393;DHT22;4736;52.508;13.422;2022-12-18T08:53:40;-5.30;1.00
9393;DHT22;4736;52.508;13.422;2022-12-18T08:56:43;-5.10;1.00
9393;DHT22;4736;52.508;13.422;2022-12-18T08:59:46;-5.00;1.00
9393;DHT22;4736;52.508;13.422;2022-12-18T09:02:49;-5.10;1.00
9393;DHT22;4736;52.508;13.422;2022-12-18T09:05:53;-5.10;1.00
9393;DHT22;4736;52.508;13.422;2022-12-18T09:08:57;-5.00;1.00
9393;DHT22;4736;52.508;13.422;2022-12-18T09:12:00;-5.00;1.00
9393;DHT22;4736;52.508;13.422;2022-12-18T09:15:05;-5.00;1.00
9393;DHT22;4736;52.508;13.422;2022-12-18T09:18:09;-5.10;1.00
9393;DHT22;4736;52.508;13.422;2022-12-18T09:21:14;-5.10;1.00
9393;DHT22;4736;52.508;13.422;2022-12-18T09:24:18;-4.90;1.00
9393;DHT22;4736;52.508;13.422;2022-12-18T09:27:21;-4.90;1.00
9393;DHT22;4736;52.508;13.422;2022-12-18T09:30:24;-5.00;1.00
9393;DHT22;4736;52.508;13.422;2022-12-18T09:33:27;-4.50;1.00
9393;DHT22;4736;52.508;13.422;2022-12-18T09:36:30;-4.50;1.00
9393;DHT22;4736;52.508;13.422;2022-12-18T09:39:38;-4.50;1.00
9393;DHT22;4736;52.508;13.422;2022-12-18T09:42:43;-4.20;1.00
9393;DHT22;4736;52.508;13.422;2022-12-18T09:45:51;-4.20;1.00
9393;DHT22;4736;52.508;13.422;2022-12-18T09:48:58;-4.30;1.00
9393;DHT22;4736;52.508;13.422;2022-12-18T09:52:09;-4.30;1.00
9393;DHT22;4736;52.508;13.422;2022-12-18T09:55:22;-4.10;1.00
9393;DHT22;4736;52.508;13.422;2022-12-18T09:58:29;-4.30;1.00
9393;DHT22;4736;52.508;13.422;2022-12-18T10:01:33;-4.10;1.00
9393;DHT22;4736;52.508;13.422;2022-12-18T10:04:50;-4.20;1.00
9393;DHT22;4736;52.508;13.422;2022-12-18T10:08:02;-4.20;1.00
9393;DHT22;4736;52.508;13.422;2022-12-18T10:11:24;-4.00;1.00
9393;DHT22;4736;52.508;13.422;2022-12-18T10:14:34;-4.10;1.00
9393;DHT22;4736;52.508;13.422;2022-12-18T10:17:44;-4.00;1.00
9393;DHT22;4736;52.508;13.422;2022-12-18T10:20:52;-3.80;1.00
9393;DHT22;4736;52.508;13.422;2022-12-18T10:24:04;-3.80;1.00
9393;DHT22;4736;52.508;13.422;2022-12-18T10:27:15;-4.00;1.00
9393;DHT22;4736;52.508;13.422;2022-12-18T10:30:22;-3.80;1.00
9393;DHT22;4736;52.508;13.422;2022-12-18T10:33:29;-3.90;1.00
9393;DHT22;4736;52.508;13.422;2022-12-18T10:36:33;-3.90;1.00
9393;DHT22;4736;52.508;13.422;2022-12-18T10:39:36;-3.70;1.00
9393;DHT22;4736;52.508;13.422;2022-12-18T10:42:41;-3.70;1.00
9393;DHT22;4736;52.508;13.422;2022-12-18T10:45:59;-3.60;1.00
9393;DHT22;4736;52.508;13.422;2022-12-18T10:49:02;-3.40;1.00
9393;DHT22;4736;52.508;13.422;2022-12-18T10:52:14;-3.60;1.00
9393;DHT22;4736;52.508;13.422;2022-12-18T10:55:18;-3.40;1.00
9393;DHT22;4736;52.508;13.422;2022-12-18T10:58:27;-3.50;1.00
9393;DHT22;4736;52.508;13.422;2022-12-18T11:01:46;-3.30;1.00
9393;DHT22;4736;52.508;13.422;2022-12-18T11:04:51;-3.50;1.00
9393;DHT22;4736;52.508;13.422;2022-12-18T11:07:54;-3.30;1.00
9393;DHT22;4736;52.508;13.422;2022-12-18T11:10:58;-3.30;1.00
9393;DHT22;4736;52.508;13.422;2022-12-18T11:14:04;-3.30;1.00
9393;DHT22;4736;52.508;13.422;2022-12-18T11:17:18;-3.20;1.00
9393;DHT22;4736;52.508;13.422;2022-12-18T11:20:31;-3.30;1.00
9393;DHT22;4736;52.508;13.422;2022-12-18T11:23:36;-3.30;1.00
9393;DHT22;4736;52.508;13.422;2022-12-18T11:26:40;-3.10;1.00
9393;DHT22;4736;52.508;13.422;2022-12-18T11:29:46;-3.30;1.00
9393;DHT22;4736;52.508;13.422;2022-12-18T11:32:55;-3.30;1.00
9393;DHT22;4736;52.508;13.422;2022-12-18T11:36:02;-3.10;1.00
9393;DHT22;4736;52.508;13.422;2022-12-18T11:39:12;-3.20;1.00
9393;DHT22;4736;52.508;13.422;2022-12-18T11:42:22;-3.40;1.00
9393;DHT22;4736;52.508;13.422;2022-12-18T11:45:29;-3.50;1.00
9393;DHT22;4736;52.508;13.422;2022-12-18T11:48:36;-3.70;1.00
9393;DHT22;4736;52.508;13.422;2022-12-18T11:51:44;-3.40;1.00
9393;DHT22;4736;52.508;13.422;2022-12-18T11:54:51;-3.40;1.00
9393;DHT22;4736;52.508;13.422;2022-12-18T11:58:00;-3.60;1.00
9393;DHT22;4736;52.508;13.422;2022-12-18T12:01:15;-3.60;1.00
9393;DHT22;4736;52.508;13.422;2022-12-18T12:04:42;-3.70;1.00
9393;DHT22;4736;52.508;13.422;2022-12-18T12:07:53;-3.60;1.00
9393;DHT22;4736;52.508;13.422;2022-12-18T12:11:03;-3.40;1.00
9393;DHT22;4736;52.508;13.422;2022-12-18T12:14:19;-3.60;1.00
9393;DHT22;4736;52.508;13.422;2022-12-18T12:17:32;-3.60;1.00
9393;DHT22;4736;52.508;13.422;2022-12-18T12:20:47;-3.70;1.00
9393;DHT22;4736;52.508;13.422;2022-12-18T12:23:55;-3.60;1.00
9393;DHT22;4736;52.508;13.422;2022-12-18T12:27:09;-3.70;1.00
9393;DHT22;4736;52.508;13.422;2022-12-18T12:30:20;-3.60;1.00
9393;DHT22;4736;52.508;13.422;2022-12-18T12:33:36;-3.60;1.00
9393;DHT22;4736;52.508;13.422;2022-12-18T12:36:52;-3.50;1.00
9393;DHT22;4736;52.508;13.422;2022-12-18T12:40:00;-3.60;1.00
9393;DHT22;4736;52.508;13.422;2022-12-18T12:43:29;-3.60;1.00
9393;DHT22;4736;52.508;13.422;2022-12-18T12:46:36;-3.50;1.00
9393;DHT22;4736;52.508;13.422;2022-12-18T12:49:45;-3.10;1.00
9393;DHT22;4736;52.508;13.422;2022-12-18T12:52:54;-3.10;1.00
9393;DHT22;4736;52.508;13.422;2022-12-18T12:55:58;-3.00;1.00
9393;DHT22;4736;52.508;13.422;2022-12-18T12:59:10;-3.10;1.00
9393;DHT22;4736;52.508;13.422;2022-12-18T13:02:20;-2.90;1.00
9393;DHT22;4736;52.508;13.422;2022-12-18T13:05:31;-2.90;1.00
9393;DHT22;4736;52.508;13.422;2022-12-18T13:08:54;-2.90;1.00
9393;DHT22;4736;52.508;13.422;2022-12-18T13:12:04;-2.90;1.00
9393;DHT22;4736;52.508;13.422;2022-12-18T13:15:36;-2.90;1.00
9393;DHT22;4736;52.508;13.422;2022-12-18T13:18:48;-2.90;1.00
9393;DHT22;4736;52.508;13.422;2022-12-18T13:21:55;-3.20;1.00
9393;DHT22;4736;52.508;13.422;2022-12-18T13:24:59;-3.10;1.00
9393;DHT22;4736;52.508;13.422;2022-12-18T13:28:08;-3.00;1.00
9393;DHT22;4736;52.508;13.422;2022-12-18T13:31:12;-3.00;1.00
9393;DHT22;4736;52.508;13.422;2022-12-18T13:34:18;-3.00;1.00
9393;DHT22;4736;52.508;13.422;2022-12-18T13:37:44;-3.00;1.00
9393;DHT22;4736;52.508;13.422;2022-12-18T13:40:56;-3.10;1.00
9393;DHT22;4736;52.508;13.422;2022-12-18T13:44:11;-2.80;1.00
9393;DHT22;4736;52.508;13.422;2022-12-18T13:47:26;-3.00;1.00
9393;DHT22;4736;52.508;13.422;2022-12-18T13:50:30;-2.90;1.00
9393;DHT22;4736;52.508;13.422;2022-12-18T13:53:43;-2.70;1.00
9393;DHT22;4736;52.508;13.422;2022-12-18T13:56:48;-3.00;1.00
9393;DHT22;4736;52.508;13.422;2022-12-18T13:59:51;-3.10;1.00
9393;DHT22;4736;52.508;13.422;2022-12-18T14:02:55;-2.90;1.00
9393;DHT22;4736;52.508;13.422;2022-12-18T14:06:02;-2.90;1.00
9393;DHT22;4736;52.508;13.422;2022-12-18T14:09:11;-3.30;1.00
9393;DHT22;4736;52.508;13.422;2022-12-18T14:12:23;-3.20;1.00
9393;DHT22;4736;52.508;13.422;2022-12-18T14:15:47;-3.40;1.00
9393;DHT22;4736;52.508;13.422;2022-12-18T14:18:53;-3.30;1.00
9393;DHT22;4736;52.508;13.422;2022-12-18T14:22:04;-3.40;1.00
9393;DHT22;4736;52.508;13.422;2022-12-18T14:25:16;-3.50;1.00
9393;DHT22;4736;52.508;13.422;2022-12-18T14:28:19;-3.20;1.00
9393;DHT22;4736;52.508;13.422;2022-12-18T14:31:25;-3.50;1.00
9393;DHT22;4736;52.508;13.422;2022-12-18T14:34:28;-3.50;1.00
9393;DHT22;4736;52.508;13.422;2022-12-18T14:37:31;-3.20;1.00
9393;DHT22;4736;52.508;13.422;2022-12-18T14:40:35;-3.40;1.00
9393;DHT22;4736;52.508;13.422;2022-12-18T14:43:39;-3.10;1.00
9393;DHT22;4736;52.508;13.422;2022-12-18T14:46:44;-3.20;1.00
9393;DHT22;4736;52.508;13.422;2022-12-18T14:49:48;-3.40;1.00
9393;DHT22;4736;52.508;13.422;2022-12-18T14:52:52;-3.40;1.00
9393;DHT22;4736;52.508;13.422;2022-12-18T14:55:56;-3.30;1.00
9393;DHT22;4736;52.508;13.422;2022-12-18T14:59:01;-3.10;1.00
9393;DHT22;4736;52.508;13.422;2022-12-18T15:02:15;-3.20;1.00
9393;DHT22;4736;52.508;13.422;2022-12-18T15:05:26;-3.40;1.00
9393;DHT22;4736;52.508;13.422;2022-12-18T15:08:34;-3.30;1.00
9393;DHT22;4736;52.508;13.422;2022-12-18T15:11:46;-3.50;1.00
9393;DHT22;4736;52.508;13.422;2022-12-18T15:14:49;-3.40;1.00
9393;DHT22;4736;52.508;13.422;2022-12-18T15:17:57;-3.20;1.00
9393;DHT22;4736;52.508;13.422;2022-12-18T15:21:08;-3.50;1.00
9393;DHT22;4736;52.508;13.422;2022-12-18T15:24:17;-3.50;1.00
9393;DHT22;4736;52.508;13.422;2022-12-18T15:27:27;-3.50;1.00
9393;DHT22;4736;52.508;13.422;2022-12-18T15:30:31;-3.40;1.00
9393;DHT22;4736;52.508;13.422;2022-12-18T15:33:35;-3.30;1.00
9393;DHT22;4736;52.508;13.422;2022-12-18T15:36:39;-3.60;1.00
9393;DHT22;4736;52.508;13.422;2022-12-18T15:39:43;-3.50;1.00
9393;DHT22;4736;52.508;13.422;2022-12-18T15:42:47;-3.50;1.00
9393;DHT22;4736;52.508;13.422;2022-12-18T15:46:12;-3.50;1.00
9393;DHT22;4736;52.508;13.422;2022-12-18T15:49:15;-3.40;1.00
9393;DHT22;4736;52.508;13.422;2022-12-18T15:52:18;-3.20;1.00
9393;DHT22;4736;52.508;13.422;2022-12-18T15:55:27;-3.10;1.00
9393;DHT22;4736;52.508;13.422;2022-12-18T15:58:49;-3.20;1.00
9393;DHT22;4736;52.508;13.422;2022-12-18T16:01:52;-3.30;1.00
9393;DHT22;4736;52.508;13.422;2022-12-18T16:04:56;-3.50;1.00
9393;DHT22;4736;52.508;13.422;2022-12-18T16:07:59;-3.30;1.00
9393;DHT22;4736;52.508;13.422;2022-12-18T16:11:01;-3.50;1.00
9393;DHT22;4736;52.508;13.422;2022-12-18T16:14:17;-3.30;1.00
9393;DHT22;4736;52.508;13.422;2022-12-18T16:17:20;-3.10;1.00
9393;DHT22;4736;52.508;13.422;2022-12-18T16:20:23;-3.40;1.00
9393;DHT22;4736;52.508;13.422;2022-12-18T16:23:26;-3.20;1.00
9393;DHT22;4736;52.508;13.422;2022-12-18T16:26:33;-3.40;1.00
9393;DHT22;4736;52.508;13.422;2022-12-18T16:29:37;-3.50;1.00
9393;DHT22;4736;52.508;13.422;2022-12-18T16:32:40;-3.20;1.00
9393;DHT22;4736;52.508;13.422;2022-12-18T16:35:51;-3.50;1.00
9393;DHT22;4736;52.508;13.422;2022-12-18T16:38:54;-3.40;1.00
9393;DHT22;4736;52.508;13.422;2022-12-18T16:41:57;-3.30;1.00
9393;DHT22;4736;52.508;13.422;2022-12-18T16:45:06;-3.30;1.00
9393;DHT22;4736;52.508;13.422;2022-12-18T16:48:10;-3.20;1.00
9393;DHT22;4736;52.508;13.422;2022-12-18T16:51:13;-3.10;1.00
9393;DHT22;4736;52.508;13.422;2022-12-18T16:54:16;-3.40;1.00
9393;DHT22;4736;52.508;13.422;2022-12-18T16:57:21;-3.10;1.00
9393;DHT22;4736;52.508;13.422;2022-12-18T17:00:27;-3.20;1.00
9393;DHT22;4736;52.508;13.422;2022-12-18T17:03:30;-3.40;1.00
9393;DHT22;4736;52.508;13.422;2022-12-18T17:06:37;-3.20;1.00
9393;DHT22;4736;52.508;13.422;2022-12-18T17:09:41;-3.70;1.00
9393;DHT22;4736;52.508;13.422;2022-12-18T17:12:44;-3.30;1.00
9393;DHT22;4736;52.508;13.422;2022-12-18T17:15:48;-3.50;1.00
9393;DHT22;4736;52.508;13.422;2022-12-18T17:18:52;-3.70;1.00
9393;DHT22;4736;52.508;13.422;2022-12-18T17:21:55;-3.50;1.00
9393;DHT22;4736;52.508;13.422;2022-12-18T17:24:58;-3.60;1.00
9393;DHT22;4736;52.508;13.422;2022-12-18T17:28:01;-3.60;1.00
9393;DHT22;4736;52.508;13.422;2022-12-18T17:31:11;-3.60;1.00
9393;DHT22;4736;52.508;13.422;2022-12-18T17:34:15;-3.70;1.00
9393;DHT22;4736;52.508;13.422;2022-12-18T17:37:18;-3.80;1.00
9393;DHT22;4736;52.508;13.422;2022-12-18T17:40:21;-3.60;1.00
9393;DHT22;4736;52.508;13.422;2022-12-18T17:43:24;-3.60;1.00
9393;DHT22;4736;52.508;13.422;2022-12-18T17:46:29;-3.80;1.00
9393;DHT22;4736;52.508;13.422;2022-12-18T17:49:33;-3.60;1.00
9393;DHT22;4736;52.508;13.422;2022-12-18T17:52:36;-3.70;1.00
9393;DHT22;4736;52.508;13.422;2022-12-18T17:55:39;-4.00;1.00
9393;DHT22;4736;52.508;13.422;2022-12-18T17:58:42;-3.60;1.00
9393;DHT22;4736;52.508;13.422;2022-12-18T18:01:47;-3.80;1.00
9393;DHT22;4736;52.508;13.422;2022-12-18T18:04:50;-3.80;1.00
9393;DHT22;4736;52.508;13.422;2022-12-18T18:07:53;-3.60;1.00
9393;DHT22;4736;52.508;13.422;2022-12-18T18:10:56;-3.70;1.00
9393;DHT22;4736;52.508;13.422;2022-12-18T18:14:19;-3.60;1.00
9393;DHT22;4736;52.508;13.422;2022-12-18T18:17:23;-3.90;1.00
9393;DHT22;4736;52.508;13.422;2022-12-18T18:20:26;-3.80;1.00
9393;DHT22;4736;52.508;13.422;2022-12-18T18:23:31;-3.70;1.00
9393;DHT22;4736;52.508;13.422;2022-12-18T18:26:35;-3.90;1.00
9393;DHT22;4736;52.508;13.422;2022-12-18T18:29:39;-3.90;1.00
9393;DHT22;4736;52.508;13.422;2022-12-18T18:32:43;-3.80;1.00
9393;DHT22;4736;52.508;13.422;2022-12-18T18:35:46;-4.10;1.00
9393;DHT22;4736;52.508;13.422;2022-12-18T18:38:57;-4.10;1.00
9393;DHT22;4736;52.508;13.422;2022-12-18T18:42:01;-4.00;1.00
9393;DHT22;4736;52.508;13.422;2022-12-18T18:45:05;-4.00;1.00
9393;DHT22;4736;52.508;13.422;2022-12-18T18:48:10;-4.00;1.00
9393;DHT22;4736;52.508;13.422;2022-12-18T18:51:16;-3.90;1.00
9393;DHT22;4736;52.508;13.422;2022-12-18T18:54:22;-4.20;1.00
9393;DHT22;4736;52.508;13.422;2022-12-18T18:57:26;-4.00;1.00
9393;DHT22;4736;52.508;13.422;2022-12-18T19:00:31;-4.00;1.00
9393;DHT22;4736;52.508;13.422;2022-12-18T19:03:36;-4.10;1.00
9393;DHT22;4736;52.508;13.422;2022-12-18T19:06:40;-4.20;1.00
9393;DHT22;4736;52.508;13.422;2022-12-18T19:09:43;-4.10;1.00
9393;DHT22;4736;52.508;13.422;2022-12-18T19:12:52;-4.10;1.00
9393;DHT22;4736;52.508;13.422;2022-12-18T19:16:12;-4.00;1.00
9393;DHT22;4736;52.508;13.422;2022-12-18T19:19:17;-4.10;1.00
9393;DHT22;4736;52.508;13.422;2022-12-18T19:22:22;-4.10;1.00
9393;DHT22;4736;52.508;13.422;2022-12-18T19:25:25;-4.00;1.00
9393;DHT22;4736;52.508;13.422;2022-12-18T19:28:41;-4.10;1.00
9393;DHT22;4736;52.508;13.422;2022-12-18T19:31:45;-4.10;1.00
9393;DHT22;4736;52.508;13.422;2022-12-18T19:34:49;-4.00;1.00
9393;DHT22;4736;52.508;13.422;2022-12-18T19:37:53;-4.20;1.00
9393;DHT22;4736;52.508;13.422;2022-12-18T19:40:56;-4.00;1.00
9393;DHT22;4736;52.508;13.422;2022-12-18T19:44:00;-4.40;1.00
9393;DHT22;4736;52.508;13.422;2022-12-18T19:47:09;-4.20;1.00
9393;DHT22;4736;52.508;13.422;2022-12-18T19:50:13;-4.20;1.00
9393;DHT22;4736;52.508;13.422;2022-12-18T19:53:16;-4.20;1.00
9393;DHT22;4736;52.508;13.422;2022-12-18T19:56:21;-4.10;1.00
9393;DHT22;4736;52.508;13.422;2022-12-18T19:59:25;-4.20;1.00
9393;DHT22;4736;52.508;13.422;2022-12-18T20:02:28;-4.10;1.00
9393;DHT22;4736;52.508;13.422;2022-12-18T20:05:33;-4.20;1.00
9393;DHT22;4736;52.508;13.422;2022-12-18T20:08:36;-4.00;1.00
9393;DHT22;4736;52.508;13.422;2022-12-18T20:11:39;-4.00;1.00
9393;DHT22;4736;52.508;13.422;2022-12-18T20:14:43;-4.10;1.00
9393;DHT22;4736;52.508;13.422;2022-12-18T20:17:47;-4.10;1.00